Time;durP1;ratioP1;P1;durP2;ratioP2;P2;SDS_P1;SDS_P2;PMS_P1;PMS_P2;Temp;Humidity;BMP_temperature;BMP_pressure;BME280_temperature;BME280_humidity;BME280_pressure;Samples;Min_cycle;Max_cycle;Signal;HPM_P1;HPM_P2
2023/06/10 00:01:47;;;;;;;7.47;4.75;;;;;;;18.56;57.50;100958.00;7395721;19;20077;-68
2023/06/10 00:04:16;;;;;;;12.15;5.68;;;;;;;18.52;57.53;100955.56;7394523;19;20043;-68
2023/06/10 00:06:48;;;;;;;7.30;5.05;;;;;;;18.45;58.13;100967.44;7393881;19;20098;-68
2023/06/10 00:09:18;;;;;;;9.20;4.20;;;;;;;18.39;58.30;100969.47;7395931;19;20014;-71
2023/06/10 00:11:49;;;;;;;8.45;4.70;;;;;;;18.32;58.26;100967.22;7395524;19;20018;-69
2023/06/10 00:14:17;;;;;;;7.97;4.93;;;;;;;18.26;58.50;100959.56;7393609;19;20184;-69
2023/06/10 00:16:47;;;;;;;12.68;4.72;;;;;;;18.16;59.16;100954.72;7393651;19;20089;-68
2023/06/10 00:19:16;;;;;;;10.15;4.70;;;;;;;18.07;59.56;100966.66;7395035;19;20007;-73
2023/06/10 00:21:45;;;;;;;8.20;4.88;;;;;;;18.04;59.27;100971.25;7395463;19;20025;-69
2023/06/10 00:24:14;;;;;;;8.25;4.65;;;;;;;18.04;59.51;100971.25;7393179;19;20043;-68
2023/06/10 00:26:43;;;;;;;8.50;4.63;;;;;;;18.02;59.99;100966.03;7394958;19;20030;-68
2023/06/10 00:29:14;;;;;;;7.32;4.85;;;;;;;17.97;60.20;100960.09;7394925;19;20082;-68
2023/06/10 00:31:43;;;;;;;7.95;4.35;;;;;;;17.89;59.76;100962.22;7392888;19;20014;-68
2023/06/10 00:34:12;;;;;;;7.57;4.60;;;;;;;17.84;59.96;100974.84;7393146;19;20420;-69
2023/06/10 00:36:40;;;;;;;8.43;5.30;;;;;;;17.78;60.05;100973.38;7394788;19;20078;-68
2023/06/10 00:39:09;;;;;;;10.30;4.90;;;;;;;17.74;60.51;100962.03;7394736;19;20070;-68
2023/06/10 00:41:37;;;;;;;9.45;4.75;;;;;;;17.71;60.65;100962.16;7392402;19;20086;-68
2023/06/10 00:44:06;;;;;;;9.98;4.45;;;;;;;17.68;60.41;100959.69;7393336;19;20082;-68
2023/06/10 00:46:37;;;;;;;7.05;4.40;;;;;;;17.64;60.84;100967.84;7394177;19;20081;-68
2023/06/10 00:49:06;;;;;;;8.77;5.00;;;;;;;17.57;60.95;100970.78;7394701;19;20014;-68
2023/06/10 00:51:36;;;;;;;8.43;4.90;;;;;;;17.50;61.28;100972.03;7392050;19;20014;-68
2023/06/10 00:54:05;;;;;;;6.80;4.97;;;;;;;17.46;61.43;100981.03;7392611;19;20489;-69
2023/06/10 00:56:35;;;;;;;8.88;5.53;;;;;;;17.43;61.60;100971.44;7394293;19;20017;-69
2023/06/10 00:59:04;;;;;;;8.18;5.10;;;;;;;17.39;61.79;100972.53;7394006;19;20505;-68
2023/06/10 01:01:33;;;;;;;8.55;5.32;;;;;;;17.33;61.97;100967.50;7395596;19;20090;-68
2023/06/10 01:04:05;;;;;;;8.27;4.70;;;;;;;17.25;62.45;100975.81;7399622;19;20029;-68
2023/06/10 01:06:45;;;;;;;12.63;5.60;;;;;;;17.19;62.51;100969.94;7401204;19;20018;-68
2023/06/10 01:09:21;;;;;;;11.40;5.75;;;;;;;17.10;63.09;100968.56;7401811;19;20015;-68
2023/06/10 01:11:57;;;;;;;7.80;5.78;;;;;;;17.03;63.13;100973.28;7400979;19;20026;-69
2023/06/10 01:14:27;;;;;;;7.53;5.30;;;;;;;16.97;63.53;100967.41;7398750;19;20078;-69
2023/06/10 01:16:56;;;;;;;9.20;5.18;;;;;;;16.88;64.25;100971.28;7398548;19;20018;-69
2023/06/10 01:19:28;;;;;;;11.07;5.13;;;;;;;16.78;64.22;100971.69;7398968;19;20007;-69
2023/06/10 01:22:00;;;;;;;6.65;5.07;;;;;;;16.72;64.72;100973.75;7398639;19;20070;-69
2023/06/10 01:24:32;;;;;;;7.43;5.25;;;;;;;16.64;64.88;100976.72;7398957;19;20034;-69
2023/06/10 01:27:04;;;;;;;8.10;5.70;;;;;;;16.57;65.75;100972.66;7401313;19;20095;-69
2023/06/10 01:29:40;;;;;;;8.35;5.45;;;;;;;16.48;65.95;100978.31;7397883;19;20074;-69
2023/06/10 01:32:14;;;;;;;9.20;5.75;;;;;;;16.39;66.12;100967.22;7401184;19;20015;-69
2023/06/10 01:34:45;;;;;;;8.15;5.40;;;;;;;16.34;66.49;100982.44;7398047;19;20085;-69
2023/06/10 01:37:20;;;;;;;7.85;5.50;;;;;;;16.28;67.20;100987.97;7400937;19;20022;-68
2023/06/10 01:39:52;;;;;;;11.30;5.95;;;;;;;16.21;67.01;100984.72;7401581;19;20010;-68
2023/06/10 01:42:21;;;;;;;10.25;5.88;;;;;;;16.15;67.40;100984.09;7399962;19;20019;-69
2023/06/10 01:44:49;;;;;;;9.02;5.50;;;;;;;16.07;67.69;100985.28;7397749;19;20086;-69
2023/06/10 01:47:18;;;;;;;8.40;5.47;;;;;;;16.01;68.24;100988.19;7400167;19;20090;-69
2023/06/10 01:49:46;;;;;;;9.52;5.63;;;;;;;15.94;68.68;100981.44;7399646;19;20421;-68
2023/06/10 01:52:17;;;;;;;10.75;5.85;;;;;;;15.90;68.82;100987.78;7400033;19;20086;-68
2023/06/10 01:54:46;;;;;;;8.38;5.28;;;;;;;15.82;69.29;100989.84;7397076;19;20081;-69
2023/06/10 01:57:14;;;;;;;10.32;5.90;;;;;;;15.74;69.66;100985.69;7399856;19;20039;-68
2023/06/10 01:59:44;;;;;;;9.75;6.30;;;;;;;15.67;69.75;100978.06;7399725;19;20083;-69
2023/06/10 02:02:12;;;;;;;9.43;5.80;;;;;;;15.66;69.96;100990.44;7399747;19;20050;-68
2023/06/10 02:04:41;;;;;;;12.35;6.05;;;;;;;15.63;70.11;100987.88;7397303;19;20070;-68
2023/06/10 02:07:09;;;;;;;10.75;5.28;;;;;;;15.61;70.29;100987.09;7399101;19;20079;-68
2023/06/10 02:09:40;;;;;;;12.10;6.00;;;;;;;15.58;70.61;100990.72;7398975;19;20486;-69
2023/06/10 02:12:10;;;;;;;11.77;5.75;;;;;;;15.55;70.79;100982.91;7398851;19;20087;-68
2023/06/10 02:14:38;;;;;;;9.90;6.10;;;;;;;15.54;70.97;100988.25;7396896;19;20019;-68
2023/06/10 02:17:12;;;;;;;14.32;5.55;;;;;;;15.50;71.40;100992.78;7398838;19;20094;-68
2023/06/10 02:19:42;;;;;;;12.90;5.90;;;;;;;15.44;71.60;100987.72;7394751;19;20006;-68
2023/06/10 02:22:10;;;;;;;9.88;5.80;;;;;;;15.40;71.50;100991.44;7394266;19;20043;-67
2023/06/10 02:24:42;;;;;;;9.20;5.43;;;;;;;15.38;71.90;100986.19;7393984;19;20074;-68
2023/06/10 02:27:10;;;;;;;13.80;5.80;;;;;;;15.36;72.09;100990.66;7396363;19;20015;-68
2023/06/10 02:29:39;;;;;;;9.48;5.65;;;;;;;15.35;72.09;100983.66;7396277;19;20019;-68
2023/06/10 02:32:09;;;;;;;9.07;6.05;;;;;;;15.32;72.24;100983.78;7396466;19;20188;-68
2023/06/10 02:34:38;;;;;;;10.27;6.10;;;;;;;15.29;72.48;100984.75;7393960;19;20086;-68
2023/06/10 02:37:07;;;;;;;8.63;5.88;;;;;;;15.26;72.53;100981.38;7396160;19;20030;-68
2023/06/10 02:39:35;;;;;;;9.93;6.15;;;;;;;15.23;72.69;100990.28;7395844;19;20086;-68
2023/06/10 02:42:08;;;;;;;13.95;5.57;;;;;;;15.22;73.10;100977.97;7396216;19;20082;-68
2023/06/10 02:44:36;;;;;;;14.73;6.22;;;;;;;15.20;73.27;100986.88;7393411;19;20489;-68
2023/06/10 02:47:05;;;;;;;10.45;5.97;;;;;;;15.15;73.30;100981.75;7396277;19;20082;-69
2023/06/10 02:49:34;;;;;;;10.75;5.60;;;;;;;15.15;73.36;100982.63;7395670;19;20078;-68
2023/06/10 02:52:02;;;;;;;9.80;5.57;;;;;;;15.15;73.20;100980.00;7396014;19;20078;-68
2023/06/10 02:54:31;;;;;;;8.18;5.03;;;;;;;15.18;73.28;100980.78;7393219;19;20018;-69
2023/06/10 02:57:06;;;;;;;9.35;5.60;;;;;;;15.15;73.70;100982.63;7393059;19;20077;-68
2023/06/10 02:59:37;;;;;;;12.45;5.97;;;;;;;15.11;73.65;100978.41;7396080;19;20036;-68
2023/06/10 03:02:07;;;;;;;11.73;6.50;;;;;;;15.09;74.10;100988.16;7396237;19;20018;-69
2023/06/10 03:04:37;;;;;;;13.30;5.90;;;;;;;15.06;74.19;100988.25;7392869;19;20544;-68
2023/06/10 03:07:07;;;;;;;8.07;5.47;;;;;;;15.05;73.79;100980.38;7396045;19;20086;-69
2023/06/10 03:09:35;;;;;;;10.25;6.25;;;;;;;15.01;74.50;100982.25;7395041;19;20038;-68
2023/06/10 03:12:04;;;;;;;14.13;5.78;;;;;;;14.96;74.93;100994.78;7395479;19;20014;-68
2023/06/10 03:14:34;;;;;;;10.15;5.43;;;;;;;14.90;74.93;100993.25;7392292;19;20351;-68
2023/06/10 03:17:06;;;;;;;13.32;6.30;;;;;;;14.89;75.37;100990.66;7392063;19;20014;-68
2023/06/10 03:19:47;;;;;;;11.90;6.10;;;;;;;14.87;75.22;100998.63;6261463;19;22189792;-68
2023/06/10 03:22:17;;;;;;;13.27;6.97;;;;;;;14.85;75.04;100995.19;7397520;19;20167;-68
2023/06/10 03:24:46;;;;;;;9.95;6.20;;;;;;;14.88;75.02;101004.78;7393205;19;20482;-67
2023/06/10 03:27:15;;;;;;;11.00;5.75;;;;;;;14.90;75.30;101005.56;7396864;19;20022;-68
2023/06/10 03:29:43;;;;;;;7.18;5.72;;;;;;;14.90;75.07;101002.94;7396407;19;20085;-68
2023/06/10 03:32:14;;;;;;;14.00;6.45;;;;;;;14.92;74.95;101001.94;7396699;19;20090;-68
2023/06/10 03:34:44;;;;;;;12.52;6.38;;;;;;;14.93;74.97;101001.03;7394947;19;20521;-68
2023/06/10 03:37:13;;;;;;;13.45;5.65;;;;;;;14.98;75.13;101006.16;7396364;19;20014;-68
2023/06/10 03:39:41;;;;;;;13.20;6.40;;;;;;;15.00;75.12;100996.41;7394775;19;20019;-69
2023/06/10 03:42:10;;;;;;;12.55;6.80;;;;;;;15.00;75.43;101007.00;7396069;19;20428;-69
2023/06/10 03:44:38;;;;;;;12.75;6.13;;;;;;;14.98;75.60;101000.88;7394143;19;20534;-69
2023/06/10 03:47:07;;;;;;;13.43;6.63;;;;;;;14.96;75.45;101006.22;7394373;19;20018;-69
2023/06/10 03:49:40;;;;;;;10.05;6.20;;;;;;;14.96;75.61;101005.34;7395692;19;20010;-69
2023/06/10 03:52:09;;;;;;;11.38;6.38;;;;;;;14.96;75.73;101002.72;7394061;19;20011;-69
2023/06/10 03:54:37;;;;;;;12.82;6.25;;;;;;;14.96;75.61;101016.81;7394523;19;20047;-68
2023/06/10 03:57:07;;;;;;;9.80;6.20;;;;;;;14.98;76.00;101027.31;7395574;19;20078;-69
2023/06/10 03:59:35;;;;;;;9.88;6.65;;;;;;;15.00;75.58;101025.47;7395654;19;20021;-69
2023/06/10 04:02:04;;;;;;;11.60;6.82;;;;;;;15.01;75.90;101021.91;7395671;19;20014;-69
2023/06/10 04:04:33;;;;;;;13.15;6.28;;;;;;;14.99;76.05;101023.75;7394181;19;20038;-68
2023/06/10 04:07:04;;;;;;;11.90;6.80;;;;;;;14.97;75.91;101026.47;7395554;19;20089;-68
2023/06/10 04:09:32;;;;;;;10.85;6.68;;;;;;;14.97;75.97;101030.84;7394076;19;20024;-68
2023/06/10 04:12:01;;;;;;;10.25;6.70;;;;;;;14.97;75.89;101031.75;7395355;19;20078;-69
2023/06/10 04:14:30;;;;;;;14.75;7.30;;;;;;;15.00;75.85;101025.47;7393518;19;20030;-69
2023/06/10 04:16:59;;;;;;;12.30;7.10;;;;;;;15.04;75.95;101035.03;7395256;19;20022;-68
2023/06/10 04:19:28;;;;;;;11.70;7.28;;;;;;;15.06;76.28;101041.09;7392738;19;20006;-68
2023/06/10 04:21:57;;;;;;;14.95;6.45;;;;;;;15.06;76.25;101033.16;7395501;19;20019;-68
2023/06/10 04:24:28;;;;;;;10.43;6.68;;;;;;;15.06;76.26;101025.22;7393492;19;20042;-68
2023/06/10 04:26:56;;;;;;;13.98;6.43;;;;;;;15.08;76.30;101039.28;7393788;19;20014;-68
2023/06/10 04:29:25;;;;;;;11.85;6.75;;;;;;;15.08;76.08;101036.63;7394660;19;20584;-68
2023/06/10 04:31:53;;;;;;;16.02;7.13;;;;;;;15.10;76.45;101037.44;7394981;19;20015;-69
2023/06/10 04:34:21;;;;;;;10.77;6.53;;;;;;;15.10;76.48;101037.44;7392840;19;20172;-68
2023/06/10 04:36:50;;;;;;;12.15;7.35;;;;;;;15.11;76.40;101035.66;7399615;19;20018;-68
2023/06/10 04:39:19;;;;;;;13.20;7.05;;;;;;;15.14;76.51;101040.84;7402389;19;20046;-68
2023/06/10 04:41:50;;;;;;;9.50;6.53;;;;;;;15.16;76.45;101044.28;7401985;19;20395;-68
2023/06/10 04:44:19;;;;;;;17.45;7.50;;;;;;;15.20;76.62;101034.47;7399653;19;20018;-68
2023/06/10 04:46:47;;;;;;;11.00;6.93;;;;;;;15.22;76.17;101043.19;7401702;19;20489;-68
2023/06/10 04:49:16;;;;;;;14.40;7.40;;;;;;;15.23;76.39;101039.66;7398899;19;20351;-68
2023/06/10 04:51:45;;;;;;;18.25;7.65;;;;;;;15.25;76.54;101043.06;7401616;19;20014;-68
2023/06/10 04:54:13;;;;;;;20.38;8.57;;;;;;;15.28;76.22;101046.47;7399315;19;20014;-68
2023/06/10 04:56:41;;;;;;;12.82;7.00;;;;;;;15.31;76.24;101040.22;7401472;19;20466;-68
2023/06/10 04:59:14;;;;;;;12.02;6.88;;;;;;;15.33;76.04;101048.97;7401799;19;20022;-68
2023/06/10 05:01:42;;;;;;;10.18;6.45;;;;;;;15.40;76.21;101041.66;7401234;19;20485;-69
2023/06/10 05:04:11;;;;;;;11.02;6.63;;;;;;;15.46;76.00;101042.28;7399488;19;20082;-68
2023/06/10 05:06:39;;;;;;;12.25;7.32;;;;;;;15.52;75.80;101045.59;7398805;19;20078;-68
2023/06/10 05:09:08;;;;;;;13.00;7.68;;;;;;;15.57;75.71;101047.19;7401344;19;20082;-67
2023/06/10 05:11:36;;;;;;;13.40;6.95;;;;;;;15.61;75.66;101045.28;7401251;19;20093;-69
2023/06/10 05:14:05;;;;;;;12.27;7.40;;;;;;;15.68;75.52;101048.53;7398917;19;20011;-69
2023/06/10 05:16:36;;;;;;;12.60;6.82;;;;;;;15.75;75.38;101050.91;7400792;19;20553;-69
2023/06/10 05:19:19;;;;;;;11.30;7.38;;;;;;;15.84;75.59;101048.84;7400203;19;20017;-68
2023/06/10 05:21:47;;;;;;;21.08;12.55;;;;;;;15.89;75.01;101049.53;7400977;19;20023;-68
2023/06/10 05:24:16;;;;;;;16.65;10.23;;;;;;;15.94;74.78;101052.88;7398737;19;20026;-68
2023/06/10 05:26:44;;;;;;;14.27;8.32;;;;;;;16.00;75.07;101054.38;7400467;19;20109;-68
2023/06/10 05:29:13;;;;;;;17.65;7.53;;;;;;;16.05;74.55;101055.94;7400672;19;20435;-69
2023/06/10 05:31:44;;;;;;;11.30;7.13;;;;;;;16.10;74.60;101058.44;7400528;19;20082;-68
2023/06/10 05:34:12;;;;;;;10.43;7.90;;;;;;;16.15;74.37;101061.75;7398454;19;20094;-68
2023/06/10 05:36:41;;;;;;;11.30;7.20;;;;;;;16.20;74.62;101062.41;7397295;19;20018;-68
2023/06/10 05:39:09;;;;;;;16.63;7.72;;;;;;;16.25;74.53;101056.91;7400269;19;20011;-69
2023/06/10 05:41:38;;;;;;;13.73;7.60;;;;;;;16.30;74.41;101062.88;7399632;19;20070;-68
2023/06/10 05:44:07;;;;;;;14.77;7.45;;;;;;;16.33;74.31;101062.78;7398316;19;20089;-70
2023/06/10 05:46:35;;;;;;;13.65;8.27;;;;;;;16.38;74.01;101063.44;7399234;19;20022;-68
2023/06/10 05:49:06;;;;;;;10.60;7.32;;;;;;;16.45;74.19;101061.41;7399768;19;20010;-68
2023/06/10 05:51:35;;;;;;;14.15;8.20;;;;;;;16.51;74.04;101062.94;7399862;19;20152;-68
2023/06/10 05:54:03;;;;;;;12.25;7.47;;;;;;;16.56;74.05;101063.63;7396967;19;20367;-69
2023/06/10 05:56:32;;;;;;;13.38;8.18;;;;;;;16.63;73.39;101058.91;7399975;19;20017;-69
2023/06/10 05:59:00;;;;;;;19.20;9.65;;;;;;;16.73;73.35;101065.53;7396590;19;20485;-69
2023/06/10 06:01:28;;;;;;;13.40;7.88;;;;;;;16.84;73.25;101058.00;7399267;19;20030;-69
2023/06/10 06:03:57;;;;;;;12.18;7.72;;;;;;;16.93;73.27;101056.78;7397694;19;20018;-69
2023/06/10 06:06:28;;;;;;;16.95;8.10;;;;;;;17.00;72.82;101063.53;7399062;19;20018;-69
2023/06/10 06:08:56;;;;;;;11.55;7.45;;;;;;;17.04;72.63;101072.22;7399069;19;20021;-68
2023/06/10 06:11:26;;;;;;;13.38;8.25;;;;;;;17.07;72.42;101066.78;7399245;19;20021;-68
2023/06/10 06:13:54;;;;;;;15.95;7.57;;;;;;;17.09;72.31;101062.28;7396558;19;20383;-68
2023/06/10 06:16:23;;;;;;;8.82;7.35;;;;;;;17.16;72.45;101057.56;7396834;19;20023;-70
2023/06/10 06:18:51;;;;;;;12.93;8.30;;;;;;;17.24;72.09;101064.25;7398845;19;20023;-69
2023/06/10 06:21:20;;;;;;;12.48;8.15;;;;;;;17.32;72.17;101066.53;7397138;19;20365;-69
2023/06/10 06:23:51;;;;;;;9.85;7.10;;;;;;;17.38;71.59;101068.91;7397450;19;20081;-69
2023/06/10 06:26:19;;;;;;;10.90;7.22;;;;;;;17.47;71.73;101067.66;7396980;19;20634;-70
2023/06/10 06:28:48;;;;;;;15.48;8.30;;;;;;;17.54;71.48;101065.56;7398816;19;20086;-69
2023/06/10 06:31:16;;;;;;;11.48;8.10;;;;;;;17.62;71.21;101071.41;7398741;19;20073;-69
2023/06/10 06:33:45;;;;;;;11.65;7.60;;;;;;;17.68;71.25;101070.22;7397226;19;20021;-69
2023/06/10 06:36:13;;;;;;;13.25;8.32;;;;;;;17.74;70.79;101068.19;7395994;19;20019;-70
2023/06/10 06:38:41;;;;;;;11.63;8.02;;;;;;;17.80;70.48;101068.81;7395976;19;20081;-69
2023/06/10 06:41:12;;;;;;;11.80;7.95;;;;;;;17.87;70.29;101076.41;7397937;19;20019;-69
2023/06/10 06:43:42;;;;;;;13.32;8.35;;;;;;;17.94;70.44;101074.34;7397712;19;20029;-69
2023/06/10 06:46:11;;;;;;;14.65;7.70;;;;;;;18.03;69.92;101073.06;7397583;19;20022;-69
2023/06/10 06:48:39;;;;;;;14.88;8.63;;;;;;;18.15;69.83;101074.28;7397903;19;20254;-68
2023/06/10 06:51:08;;;;;;;12.52;7.45;;;;;;;18.24;69.74;101077.34;7396067;19;20021;-69
2023/06/10 06:53:36;;;;;;;14.15;8.23;;;;;;;18.36;69.46;101081.19;7396876;19;20028;-69
2023/06/10 06:56:05;;;;;;;13.32;8.73;;;;;;;18.45;69.17;101082.53;7395972;19;20517;-69
2023/06/10 06:58:36;;;;;;;9.90;8.38;;;;;;;18.56;68.93;101079.34;7395748;19;20010;-69
2023/06/10 07:01:04;;;;;;;11.48;8.32;;;;;;;18.66;68.48;101079.75;7395198;19;20361;-69
2023/06/10 07:03:33;;;;;;;11.77;8.85;;;;;;;18.77;67.84;101084.53;7396233;19;20442;-69
2023/06/10 07:06:01;;;;;;;12.48;8.75;;;;;;;18.87;67.84;101088.44;7397237;19;20018;-69
2023/06/10 07:08:30;;;;;;;17.20;9.00;;;;;;;18.95;67.10;101086.25;7397711;19;20017;-69
2023/06/10 07:10:58;;;;;;;11.98;9.02;;;;;;;19.06;66.75;101091.03;7397380;19;20018;-68
2023/06/10 07:13:27;;;;;;;13.07;8.88;;;;;;;19.15;66.45;101092.34;7397078;19;20019;-69
2023/06/10 07:15:58;;;;;;;13.25;8.95;;;;;;;19.23;66.57;101095.44;7395801;19;20022;-68
2023/06/10 07:18:27;;;;;;;16.63;8.82;;;;;;;19.30;65.82;101102.19;7396655;19;20482;-68
2023/06/10 07:20:55;;;;;;;13.50;9.30;;;;;;;19.37;65.95;101092.94;7395142;19;20007;-69
2023/06/10 07:23:24;;;;;;;11.20;8.88;;;;;;;19.46;65.58;101109.34;7396170;19;20086;-69
2023/06/10 07:25:52;;;;;;;15.35;8.90;;;;;;;19.54;65.35;101099.16;7395120;19;20019;-69
2023/06/10 07:28:21;;;;;;;10.95;8.15;;;;;;;19.62;64.95;101099.59;7396131;19;20485;-69
2023/06/10 07:30:49;;;;;;;12.30;8.77;;;;;;;19.72;65.13;101102.63;7396870;19;20070;-69
2023/06/10 07:33:20;;;;;;;13.10;8.45;;;;;;;19.84;64.43;101103.75;7395471;19;20014;-69
2023/06/10 07:35:49;;;;;;;9.95;8.80;;;;;;;19.95;64.11;101096.03;7395550;19;20425;-69
2023/06/10 07:38:17;;;;;;;14.05;8.68;;;;;;;20.03;63.52;101098.31;7394323;19;20024;-69
2023/06/10 07:40:46;;;;;;;12.93;9.25;;;;;;;20.13;63.82;101107.50;7396045;19;20024;-69
2023/06/10 07:43:14;;;;;;;11.98;8.43;;;;;;;20.24;63.25;101100.69;7395439;19;20025;-69
2023/06/10 07:45:43;;;;;;;11.13;8.55;;;;;;;20.29;62.97;101098.63;7395657;19;20033;-69
2023/06/10 07:48:11;;;;;;;13.88;8.40;;;;;;;20.38;62.55;101103.41;7395129;19;20163;-69
2023/06/10 07:50:43;;;;;;;11.63;8.43;;;;;;;20.45;62.31;101101.28;7393967;19;20022;-69
2023/06/10 07:53:11;;;;;;;12.35;9.13;;;;;;;20.52;61.96;101105.28;7395498;19;20018;-69
2023/06/10 07:55:39;;;;;;;11.27;8.57;;;;;;;20.59;62.27;101103.16;7395220;19;20015;-69
2023/06/10 07:58:08;;;;;;;13.27;8.75;;;;;;;20.67;61.82;101100.88;7395434;19;20081;-69
2023/06/10 08:00:36;;;;;;;10.38;8.85;;;;;;;20.78;61.77;101098.47;7395531;19;20078;-69
2023/06/10 08:03:05;;;;;;;16.10;8.80;;;;;;;20.89;61.06;101103.16;7394834;19;20014;-69
2023/06/10 08:05:33;;;;;;;10.63;8.25;;;;;;;21.03;60.72;101104.13;7395125;19;20070;-68
2023/06/10 08:08:04;;;;;;;9.75;8.18;;;;;;;21.14;60.19;101102.56;7394650;19;20019;-69
2023/06/10 08:10:33;;;;;;;11.13;8.43;;;;;;;21.28;60.02;101096.38;7395234;19;20011;-68
2023/06/10 08:13:01;;;;;;;11.90;8.05;;;;;;;21.43;59.95;101099.91;7394427;19;20018;-69
2023/06/10 08:15:30;;;;;;;10.45;8.40;;;;;;;21.57;59.73;101096.41;7394105;19;20024;-69
2023/06/10 08:17:59;;;;;;;9.73;7.88;;;;;;;21.71;58.93;101087.53;7393026;19;20074;-70
2023/06/10 08:20:40;;;;;;;11.02;7.47;;;;;;;21.89;58.27;101090.84;7392863;19;20474;-69
2023/06/10 08:23:11;;;;;;;9.13;7.65;;;;;;;22.02;57.87;101095.41;7394380;19;20155;-68
2023/06/10 08:25:39;;;;;;;10.88;7.93;;;;;;;22.12;57.59;101096.50;7393788;19;20070;-68
2023/06/10 08:28:08;;;;;;;11.82;8.32;;;;;;;22.20;57.53;101099.53;7394497;19;20010;-68
2023/06/10 08:30:36;;;;;;;11.02;7.70;;;;;;;22.31;56.91;101100.66;7394347;19;20541;-67
2023/06/10 08:33:05;;;;;;;10.23;7.97;;;;;;;22.40;56.79;101102.75;7394039;19;20029;-69
2023/06/10 08:35:33;;;;;;;10.20;8.65;;;;;;;22.46;56.11;101105.03;7393117;19;20082;-68
2023/06/10 08:38:02;;;;;;;13.30;8.60;;;;;;;22.53;56.00;101110.81;7393971;19;20041;-68
2023/06/10 08:40:33;;;;;;;11.80;8.85;;;;;;;22.57;56.08;101117.66;7393925;19;20011;-69
2023/06/10 08:43:09;;;;;;;9.63;7.90;;;;;;;22.62;55.99;101104.84;7394626;19;20027;-69
2023/06/10 08:45:39;;;;;;;18.40;8.25;;;;;;;22.70;55.81;101110.53;7394770;19;20025;-71
2023/06/10 08:48:09;;;;;;;11.07;7.95;;;;;;;22.80;55.23;101120.59;7394334;19;20074;-70
2023/06/10 08:50:39;;;;;;;9.68;7.88;;;;;;;22.87;54.91;101112.06;7394333;19;20129;-72
2023/06/10 08:53:09;;;;;;;12.15;7.18;;;;;;;22.94;54.69;101115.19;7392859;19;20025;-71
2023/06/10 08:55:44;;;;;;;9.80;7.20;;;;;;;22.99;54.46;101104.16;7392690;19;20019;-70
2023/06/10 08:58:13;;;;;;;9.18;7.68;;;;;;;23.05;54.11;101104.63;7393718;19;20021;-71
2023/06/10 09:00:42;;;;;;;9.77;7.43;;;;;;;23.14;54.39;101111.16;7393536;19;20014;-71
2023/06/10 09:03:11;;;;;;;9.43;7.35;;;;;;;23.19;54.23;101111.72;7391406;19;20078;-70
2023/06/10 09:05:40;;;;;;;10.27;8.18;;;;;;;23.22;54.17;101106.13;7393433;19;20028;-70
2023/06/10 09:08:09;;;;;;;9.70;8.05;;;;;;;23.29;54.04;101101.25;7393181;19;20014;-70
2023/06/10 09:10:40;;;;;;;10.07;8.02;;;;;;;23.38;53.65;101102.38;7392788;19;20378;-71
2023/06/10 09:13:09;;;;;;;10.70;7.60;;;;;;;23.46;53.41;101105.41;7392826;19;20033;-72
2023/06/10 09:15:40;;;;;;;10.18;7.57;;;;;;;23.54;53.78;101097.69;7392423;19;20018;-71
2023/06/10 09:18:08;;;;;;;10.68;8.35;;;;;;;23.63;53.12;101100.66;7393617;19;20039;-71
2023/06/10 09:20:37;;;;;;;13.02;7.93;;;;;;;23.70;53.00;101094.75;7392585;19;20089;-71
2023/06/10 09:23:05;;;;;;;10.25;8.57;;;;;;;23.77;52.82;101089.81;7398476;19;20086;-71
2023/06/10 09:25:39;;;;;;;10.68;8.20;;;;;;;23.84;52.69;101092.91;7401112;19;20019;-70
2023/06/10 09:28:16;;;;;;;11.65;7.90;;;;;;;23.90;52.17;101095.16;7401409;19;20018;-71
2023/06/10 09:30:45;;;;;;;9.93;7.72;;;;;;;23.97;52.49;101095.56;7400967;19;20078;-71
2023/06/10 09:33:15;;;;;;;13.75;7.97;;;;;;;24.00;51.98;101092.66;7399119;19;20021;-71
2023/06/10 09:35:48;;;;;;;13.35;8.10;;;;;;;24.10;52.19;101098.22;7400217;19;20015;-71
2023/06/10 09:38:21;;;;;;;13.50;8.95;;;;;;;24.17;51.88;101094.13;7400209;19;20497;-71
2023/06/10 09:40:53;;;;;;;9.32;7.95;;;;;;;24.26;51.95;101103.31;7400705;19;20029;-71
2023/06/10 09:43:24;;;;;;;10.55;8.40;;;;;;;24.32;51.23;101098.34;7399134;19;20025;-72
2023/06/10 09:45:54;;;;;;;10.52;7.88;;;;;;;24.42;51.23;101098.50;7400528;19;20021;-71
2023/06/10 09:48:23;;;;;;;12.90;8.45;;;;;;;24.51;50.94;101096.97;7399980;19;20022;-71
2023/06/10 09:50:51;;;;;;;12.13;8.05;;;;;;;24.57;50.82;101091.13;7400092;19;20094;-71
2023/06/10 09:53:20;;;;;;;8.80;8.00;;;;;;;24.66;50.31;101094.97;7398712;19;20021;-71
2023/06/10 09:55:48;;;;;;;12.02;8.57;;;;;;;24.74;49.91;101086.34;7399186;19;20018;-71
2023/06/10 09:58:17;;;;;;;8.40;7.50;;;;;;;24.81;49.62;101096.50;7399766;19;20090;-71
2023/06/10 10:00:56;;;;;;;10.90;8.90;;;;;;;24.91;49.41;101087.72;7396948;19;20011;-71
2023/06/10 10:03:25;;;;;;;8.07;7.32;;;;;;;24.98;49.26;101088.97;7398609;19;20018;-71
2023/06/10 10:06:02;;;;;;;9.02;7.72;;;;;;;25.03;48.62;101089.47;7399402;19;20020;-71
2023/06/10 10:08:30;;;;;;;11.52;8.35;;;;;;;25.12;48.77;101079.84;7399640;19;20022;-71
2023/06/10 10:11:00;;;;;;;8.48;7.25;;;;;;;25.18;48.44;101080.19;7398784;19;20026;-71
2023/06/10 10:13:30;;;;;;;10.90;7.22;;;;;;;25.27;48.22;101083.16;7398141;19;20019;-71
2023/06/10 10:16:06;;;;;;;9.27;7.10;;;;;;;25.36;47.83;101077.06;7398402;19;20019;-71
2023/06/10 10:18:37;;;;;;;10.30;7.47;;;;;;;25.47;47.54;101079.75;7398937;19;20015;-71
2023/06/10 10:21:12;;;;;;;10.55;7.97;;;;;;;25.58;46.70;101070.84;7396444;19;20011;-70
2023/06/10 10:23:47;;;;;;;9.50;8.20;;;;;;;25.74;46.54;101065.09;7396147;19;20019;-71
2023/06/10 10:26:16;;;;;;;11.23;7.53;;;;;;;25.87;45.89;101070.34;7396190;19;20070;-70
2023/06/10 10:28:50;;;;;;;7.88;7.13;;;;;;;26.01;45.59;101064.66;7398197;19;20481;-70
2023/06/10 10:31:21;;;;;;;8.68;7.82;;;;;;;26.14;45.17;101063.69;7398497;19;20011;-70
2023/06/10 10:33:58;;;;;;;9.90;8.30;;;;;;;26.26;45.07;101067.19;7394821;19;20014;-70
2023/06/10 10:36:27;;;;;;;10.63;7.63;;;;;;;26.41;44.43;101076.69;7397622;19;20011;-71
2023/06/10 10:38:56;;;;;;;8.80;7.55;;;;;;;26.51;43.62;101063.28;7398234;19;20022;-71
2023/06/10 10:41:27;;;;;;;11.63;7.80;;;;;;;26.57;43.73;101060.09;7397761;19;20478;-71
2023/06/10 10:43:56;;;;;;;7.45;6.68;;;;;;;26.62;43.83;101063.22;7396668;19;20010;-71
2023/06/10 10:46:27;;;;;;;8.25;7.10;;;;;;;26.72;42.93;101052.53;7397794;19;20017;-71
2023/06/10 10:48:57;;;;;;;8.80;7.72;;;;;;;26.81;42.58;101053.63;7397681;19;20078;-69
2023/06/10 10:51:26;;;;;;;13.15;7.53;;;;;;;26.84;42.86;101056.03;7395512;19;20019;-72
2023/06/10 10:54:14;;;;;;;8.88;7.97;;;;;;;26.88;42.60;101064.72;7395174;19;20357;-71
2023/06/10 10:57:02;;;;;;;9.38;7.50;;;;;;;26.87;42.67;101054.91;7396887;19;20027;-70
2023/06/10 10:59:46;;;;;;;12.63;8.25;;;;;;;26.87;42.79;101057.63;7396533;19;20086;-71
2023/06/10 11:02:21;;;;;;;9.68;7.95;;;;;;;26.86;42.23;101046.00;7395939;19;20018;-70
2023/06/10 11:04:51;;;;;;;8.30;7.50;;;;;;;26.87;42.43;101049.53;7394924;19;20073;-71
2023/06/10 11:07:23;;;;;;;8.93;7.68;;;;;;;26.87;42.17;101052.22;7396992;19;20485;-71
2023/06/10 11:10:02;;;;;;;10.00;7.93;;;;;;;26.86;42.10;101051.38;7397744;19;20021;-71
2023/06/10 11:12:43;;;;;;;8.48;7.57;;;;;;;26.86;42.26;101051.38;7394873;19;20015;-71
2023/06/10 11:15:12;;;;;;;9.25;7.60;;;;;;;26.86;42.05;101042.47;7397306;19;20018;-70
2023/06/10 11:18:13;;;;;;;8.82;7.03;;;;;;;26.86;42.45;101037.94;7395183;19;20029;-70
2023/06/10 11:21:01;;;;;;;10.43;8.15;;;;;;;26.87;42.10;101028.88;7396129;19;20069;-71
2023/06/10 11:23:36;;;;;;;8.82;7.93;;;;;;;26.89;42.65;101034.13;7395711;19;20116;-70
2023/06/10 11:26:26;;;;;;;9.15;7.40;;;;;;;26.91;42.61;101032.16;7397136;19;20017;-72
2023/06/10 11:29:11;;;;;;;8.50;7.57;;;;;;;26.90;42.15;101030.44;7397054;19;20025;-70
2023/06/10 11:31:52;;;;;;;10.93;7.68;;;;;;;26.87;42.00;101028.88;7396463;19;20018;-69
2023/06/10 11:34:27;;;;;;;21.38;9.52;;;;;;;26.83;46.22;101032.81;7394369;19;20104;-70